createdAt,value
2023-01-17T04:54:02.792Z,22.10
2023-01-17T04:56:29.275Z,23.80
2023-01-17T04:58:58.798Z,22.38
2023-01-17T05:01:25.789Z,20.60
2023-01-17T05:03:52.479Z,21.60
2023-01-17T05:06:18.964Z,18.03
2023-01-17T05:08:45.524Z,21.20
2023-01-17T05:11:12.908Z,17.67
2023-01-17T05:13:39.392Z,18.90
2023-01-17T05:16:06.214Z,18.00
2023-01-17T05:18:32.795Z,19.07
2023-01-17T05:21:03.193Z,17.60
2023-01-17T05:25:35.825Z,14.77
2023-01-17T05:28:02.834Z,15.27
2023-01-17T05:30:31.355Z,17.73
2023-01-17T05:32:58.918Z,13.95
2023-01-17T05:35:28.561Z,14.25
2023-01-17T05:37:55.860Z,15.90
2023-01-17T05:40:25.328Z,13.55
2023-01-17T05:42:53.384Z,16.10
2023-01-17T05:45:21.436Z,18.17
2023-01-17T06:18:43.804Z,8.77
2023-01-17T06:29:40.621Z,10.30
2023-01-17T06:32:07.123Z,8.68
2023-01-17T06:34:34.125Z,10.57
2023-01-17T06:40:11.324Z,8.40
2023-01-17T06:42:37.794Z,8.13
2023-01-17T06:45:04.842Z,7.88
2023-01-17T06:47:31.354Z,9.73
2023-01-17T06:50:06.582Z,11.33
2023-01-17T06:52:33.089Z,9.63
2023-01-17T06:54:59.731Z,7.22
2023-01-17T06:57:26.463Z,7.93
2023-01-17T06:59:53.029Z,8.85
2023-01-17T07:02:19.636Z,10.57
2023-01-17T07:04:46.130Z,7.90
2023-01-17T07:07:12.615Z,10.18
2023-01-17T07:09:39.298Z,8.40
2023-01-17T07:12:06.184Z,10.30
2023-01-17T07:14:32.929Z,9.17
2023-01-17T07:16:59.768Z,10.38
2023-01-17T07:19:26.628Z,9.85
2023-01-17T07:21:54.081Z,9.05
2023-01-17T07:24:21.399Z,9.05
2023-01-17T07:26:49.188Z,8.77
2023-01-17T07:29:15.853Z,7.35
2023-01-17T07:31:42.659Z,8.93
2023-01-17T07:34:09.648Z,8.00
2023-01-17T07:36:36.437Z,7.45
2023-01-17T07:39:06.233Z,6.47
2023-01-17T07:41:34.642Z,7.07
2023-01-17T07:44:01.187Z,5.55
2023-01-17T07:46:27.911Z,6.07
2023-01-17T07:48:54.491Z,5.85
2023-01-17T07:51:21.088Z,6.97
2023-01-17T07:54:28.092Z,5.40
2023-01-17T07:56:54.609Z,4.72
2023-01-17T07:59:21.246Z,4.40
2023-01-17T08:01:47.917Z,6.60
2023-01-17T08:04:14.685Z,6.10
2023-01-17T08:10:51.525Z,4.43
2023-01-17T08:13:18.034Z,4.33
2023-01-17T08:15:44.518Z,3.53
2023-01-17T08:18:11.067Z,3.28
2023-01-17T08:20:37.561Z,2.78
2023-01-17T08:23:04.183Z,3.05
2023-01-17T08:25:33.115Z,4.07
2023-01-17T08:29:46.926Z,3.25
2023-01-17T08:32:13.539Z,0.70
2023-01-17T08:34:40.225Z,1.77
2023-01-17T08:37:06.956Z,1.30
2023-01-17T09:06:13.754Z,2.45
2023-01-17T09:10:29.080Z,2.67
2023-01-17T09:28:14.740Z,3.58
2023-01-17T09:30:41.688Z,2.63
2023-01-17T09:40:37.362Z,4.18
2023-01-17T09:43:10.286Z,3.85
2023-01-17T09:54:50.507Z,1.60
2023-01-17T09:59:32.248Z,2.97
2023-01-17T10:02:54.546Z,3.35
2023-01-17T10:05:30.015Z,4.15
2023-01-17T10:13:46.735Z,3.83
2023-01-17T10:16:36.913Z,4.00
2023-01-17T10:19:11.707Z,4.25
2023-01-17T10:22:04.244Z,3.78
2023-01-17T10:25:02.229Z,3.10
2023-01-17T10:29:03.026Z,3.15
2023-01-17T10:31:41.278Z,4.53
2023-01-17T10:34:18.828Z,3.88
2023-01-17T10:36:49.770Z,3.72
2023-01-17T10:39:28.148Z,3.00
2023-01-17T10:42:00.783Z,3.67
2023-01-17T10:44:35.398Z,2.70
2023-01-17T10:56:18.525Z,2.28
2023-01-17T10:59:33.514Z,2.72
2023-01-17T11:02:01.203Z,1.73
2023-01-17T11:04:55.471Z,2.92
2023-01-17T11:07:26.987Z,3.22
2023-01-17T11:13:30.996Z,3.33
2023-01-17T11:16:05.929Z,2.33
2023-01-17T11:46:20.637Z,2.33
2023-01-17T11:48:55.848Z,2.03
2023-01-17T11:51:34.275Z,2.50
2023-01-17T11:54:33.411Z,2.13
2023-01-17T11:57:01.264Z,2.78
2023-01-17T12:03:26.844Z,2.75
2023-01-17T12:06:15.098Z,2.33
2023-01-17T12:09:03.501Z,3.30
2023-01-17T12:12:14.794Z,3.17
2023-01-17T12:14:57.806Z,2.67
2023-01-17T12:17:49.866Z,2.92
2023-01-17T12:20:30.113Z,3.03
2023-01-17T12:23:22.412Z,3.72
2023-01-17T12:26:13.275Z,4.97
2023-01-17T12:28:48.830Z,4.25
2023-01-17T12:31:35.346Z,4.68
2023-01-17T12:34:39.395Z,4.03
2023-01-17T12:37:20.629Z,2.05
2023-01-17T12:39:54.472Z,3.35
2023-01-17T12:42:31.146Z,3.13
2023-01-17T12:45:21.637Z,3.88
2023-01-17T12:47:52.092Z,3.50
2023-01-17T12:50:39.171Z,3.83
2023-01-17T12:53:18.141Z,2.55
2023-01-17T12:55:47.617Z,3.80
2023-01-17T12:58:20.440Z,4.28
2023-01-17T13:00:51.395Z,3.93
2023-01-17T13:03:29.094Z,5.38
2023-01-17T13:05:57.724Z,3.72
2023-01-17T13:08:28.861Z,4.00
2023-01-17T13:10:58.403Z,3.72
2023-01-17T13:13:27.222Z,4.70
2023-01-17T13:16:22.173Z,4.60
2023-01-17T13:18:49.403Z,3.63
2023-01-17T13:21:32.577Z,4.63
2023-01-17T13:23:59.192Z,6.03
2023-01-17T13:26:53.034Z,4.53
2023-01-17T13:29:50.003Z,5.28
2023-01-17T13:32:35.364Z,4.78
2023-01-17T13:35:23.402Z,4.53
2023-01-17T13:38:21.958Z,6.15
2023-01-17T13:40:57.269Z,4.47
2023-01-17T13:51:08.454Z,6.32
2023-01-17T13:53:34.932Z,5.53
2023-01-17T13:56:15.617Z,7.23
2023-01-17T13:59:02.621Z,7.85
2023-01-17T14:05:23.380Z,6.65
2023-01-17T14:08:08.660Z,6.95
2023-01-17T14:10:44.150Z,6.07
2023-01-17T14:13:36.465Z,10.07
2023-01-17T14:16:29.720Z,6.28
2023-01-17T14:18:56.421Z,6.30
2023-01-17T14:21:27.925Z,7.57
2023-01-17T14:23:57.474Z,6.57
2023-01-17T14:26:28.643Z,7.05
2023-01-17T14:28:56.801Z,6.72
2023-01-17T14:31:26.616Z,7.95
2023-01-17T14:33:54.248Z,6.63
2023-01-17T14:36:28.037Z,6.57
2023-01-17T14:38:54.611Z,7.22
2023-01-17T14:41:24.498Z,9.35
2023-01-17T14:43:51.480Z,8.98
2023-01-17T14:46:29.886Z,7.20
2023-01-17T14:49:15.817Z,7.27
2023-01-17T14:51:42.345Z,7.30
2023-01-17T14:54:22.065Z,6.63
2023-01-17T14:56:48.603Z,6.50
2023-01-17T15:03:03.153Z,4.87
2023-01-17T15:05:30.447Z,7.45
2023-01-17T15:07:58.253Z,5.72
2023-01-17T15:10:30.918Z,5.80
2023-01-17T15:12:59.082Z,5.40
2023-01-17T15:15:35.142Z,6.17
2023-01-17T15:18:13.920Z,6.28
2023-01-17T15:21:00.240Z,7.47
2023-01-17T15:23:31.712Z,5.75
2023-01-17T15:25:58.925Z,7.72
2023-01-17T15:28:25.547Z,8.03
2023-01-17T15:31:24.256Z,9.80
2023-01-17T15:33:54.825Z,9.10
2023-01-17T15:36:21.265Z,10.43
2023-01-17T15:38:53.654Z,6.85
2023-01-17T15:41:23.731Z,9.03
2023-01-17T15:43:51.292Z,8.38
2023-01-17T15:46:29.002Z,7.03
2023-01-17T15:49:18.455Z,9.52
2023-01-17T15:51:55.188Z,8.40
2023-01-17T15:54:28.629Z,6.53
2023-01-17T15:57:18.045Z,7.88
2023-01-17T16:00:08.718Z,9.00
2023-01-17T16:02:35.309Z,8.40
2023-01-17T16:05:27.772Z,7.57
2023-01-17T16:08:04.260Z,6.23
2023-01-17T16:10:36.345Z,7.13
2023-01-17T16:13:04.448Z,7.07
2023-01-17T16:15:31.389Z,7.68
2023-01-17T16:18:07.611Z,8.52
2023-01-17T16:20:37.366Z,7.47
2023-01-17T16:23:03.888Z,8.13
2023-01-17T16:25:32.711Z,6.30
2023-01-17T16:27:59.662Z,7.30
2023-01-17T16:30:26.443Z,6.35
2023-01-17T16:32:53.050Z,7.20
2023-01-17T16:35:23.387Z,6.90
2023-01-17T16:37:54.858Z,6.95
2023-01-17T16:40:24.171Z,6.25
2023-01-17T16:42:50.764Z,8.20
2023-01-17T16:45:18.007Z,7.20
2023-01-17T16:47:46.631Z,8.27
2023-01-17T16:50:15.091Z,5.97
2023-01-17T16:52:41.847Z,6.03
2023-01-17T16:55:12.321Z,8.50
2023-01-17T16:57:39.204Z,7.17
2023-01-17T17:00:07.183Z,7.70
2023-01-17T17:02:33.804Z,6.95
2023-01-17T17:05:00.469Z,6.97
2023-01-17T17:07:30.100Z,7.57
2023-01-17T17:09:56.544Z,8.67
2023-01-17T17:12:23.015Z,6.75
2023-01-17T17:14:49.489Z,8.57
2023-01-17T17:17:16.004Z,7.07
2023-01-17T17:19:42.799Z,7.20
2023-01-17T17:22:09.329Z,6.10
2023-01-17T17:24:36.796Z,7.47
2023-01-17T17:27:03.422Z,6.13
2023-01-17T17:29:29.925Z,6.18
2023-01-17T17:31:56.525Z,6.68
2023-01-17T17:34:23.284Z,7.80
2023-01-17T17:36:51.895Z,7.45
2023-01-17T17:39:18.431Z,7.07
2023-01-17T17:41:48.041Z,7.68
2023-01-17T17:44:14.982Z,8.18
2023-01-17T17:46:42.218Z,8.03
2023-01-17T17:49:09.232Z,6.03
2023-01-17T17:51:38.724Z,7.22
2023-01-17T17:54:07.491Z,8.30
2023-01-17T17:56:34.744Z,7.45
2023-01-17T17:59:02.187Z,9.07
2023-01-17T18:01:30.026Z,8.40
2023-01-17T18:04:00.417Z,6.57
2023-01-17T18:06:27.018Z,7.13
2023-01-17T18:08:53.764Z,7.28
2023-01-17T18:11:25.941Z,9.13
2023-01-17T18:13:53.156Z,9.57
2023-01-17T18:16:22.904Z,10.00
2023-01-17T18:18:52.040Z,9.52
2023-01-17T18:21:25.337Z,10.02
2023-01-17T18:24:00.364Z,10.23
2023-01-17T18:26:31.799Z,8.55
2023-01-17T18:28:59.882Z,11.00
2023-01-17T18:31:30.418Z,12.60
2023-01-17T18:33:58.933Z,10.20
2023-01-17T18:36:26.203Z,9.10
2023-01-17T18:38:52.743Z,10.90
2023-01-17T18:41:25.213Z,9.15
2023-01-17T18:43:51.994Z,10.00
2023-01-17T18:46:20.026Z,9.70
2023-01-17T18:48:46.646Z,10.00
2023-01-17T18:51:15.549Z,10.00
2023-01-17T18:53:44.424Z,10.07
2023-01-17T18:56:13.501Z,11.77
2023-01-17T18:58:44.202Z,9.88
2023-01-17T19:11:44.889Z,9.07
2023-01-17T19:14:12.561Z,10.88
2023-01-17T19:16:48.325Z,9.10
2023-01-17T19:19:15.702Z,9.30
2023-01-17T19:21:42.459Z,9.02
2023-01-17T19:24:10.363Z,10.02
2023-01-17T19:26:37.014Z,13.40
2023-01-17T19:29:04.927Z,9.57
2023-01-17T19:31:40.085Z,8.55
2023-01-17T19:37:55.749Z,7.75
2023-01-17T19:40:22.554Z,6.53
2023-01-17T19:42:51.720Z,8.40
2023-01-17T19:45:59.367Z,8.30
2023-01-17T19:48:27.027Z,4.60
2023-01-17T19:50:57.401Z,7.70
2023-01-17T19:53:24.188Z,6.97
2023-01-17T19:55:50.843Z,5.97
2023-01-17T19:58:17.398Z,5.65
2023-01-17T20:00:46.778Z,5.13
2023-01-17T20:03:13.466Z,4.78
2023-01-17T20:05:40.036Z,3.30
2023-01-17T20:08:06.681Z,6.83
2023-01-17T20:14:24.042Z,6.47
2023-01-17T20:16:51.427Z,4.97
2023-01-17T20:19:18.043Z,3.40
2023-01-17T20:40:52.158Z,4.63
